createdAt,value
2022-08-26T00:01:56.794Z,21.55
2022-08-26T00:04:25.993Z,30.42
2022-08-26T00:06:55.674Z,23.40
2022-08-26T00:09:24.935Z,25.27
2022-08-26T00:11:54.064Z,39.37
2022-08-26T00:14:27.054Z,64.45
2022-08-26T00:16:57.152Z,26.02
2022-08-26T00:19:25.026Z,20.75
2022-08-26T00:21:52.426Z,35.10
2022-08-26T00:24:21.948Z,39.75
2022-08-26T00:26:49.827Z,22.10
2022-08-26T00:29:17.451Z,26.73
2022-08-26T00:31:45.584Z,21.15
2022-08-26T00:34:15.290Z,27.35
2022-08-26T00:36:43.667Z,27.05
2022-08-26T00:39:11.394Z,29.05
2022-08-26T00:41:40.874Z,22.88
2022-08-26T00:44:10.548Z,35.53
2022-08-26T00:46:46.784Z,27.58
2022-08-26T00:49:17.666Z,20.58
2022-08-26T00:51:49.627Z,23.95
2022-08-26T00:54:20.143Z,24.00
2022-08-26T00:59:22.439Z,25.17
2022-08-26T01:01:50.035Z,30.60
2022-08-26T01:04:22.814Z,31.30
2022-08-26T01:06:53.702Z,24.40
2022-08-26T01:11:53.586Z,31.17
2022-08-26T01:14:22.855Z,26.58
2022-08-26T01:16:50.274Z,24.48
2022-08-26T01:19:28.847Z,23.35
2022-08-26T01:22:00.017Z,25.40
2022-08-26T01:24:29.270Z,24.00
2022-08-26T01:27:05.430Z,25.08
2022-08-26T01:29:34.800Z,24.27
2022-08-26T01:32:05.262Z,28.27
2022-08-26T01:34:38.023Z,28.40
2022-08-26T01:37:27.508Z,32.85
2022-08-26T01:39:56.444Z,41.23
2022-08-26T01:42:27.179Z,33.83
2022-08-26T01:45:06.519Z,34.08
2022-08-26T01:47:36.469Z,27.73
2022-08-26T01:50:09.536Z,25.40
2022-08-26T01:52:39.686Z,27.20
2022-08-26T01:55:07.586Z,29.33
2022-08-26T01:57:36.474Z,39.40
2022-08-26T02:00:07.450Z,34.25
2022-08-26T02:02:41.089Z,27.65
2022-08-26T02:05:15.109Z,27.23
2022-08-26T02:07:43.423Z,41.55
2022-08-26T02:10:11.691Z,30.95
2022-08-26T02:12:39.886Z,52.05
2022-08-26T02:15:10.072Z,27.70
2022-08-26T02:17:43.730Z,22.67
2022-08-26T02:20:16.068Z,24.45
2022-08-26T02:22:45.132Z,31.33
2022-08-26T02:25:41.798Z,36.35
2022-08-26T02:28:11.296Z,31.77
2022-08-26T02:30:40.250Z,47.35
2022-08-26T02:33:07.990Z,31.08
2022-08-26T02:35:36.946Z,29.10
2022-08-26T02:38:10.054Z,26.42
2022-08-26T02:40:41.482Z,33.42
2022-08-26T02:43:10.040Z,22.45
2022-08-26T02:45:37.289Z,26.35
2022-08-26T02:48:21.551Z,27.55
2022-08-26T02:50:49.489Z,40.90
2022-08-26T02:53:18.486Z,23.60
2022-08-26T02:55:52.258Z,26.75
2022-08-26T02:58:19.447Z,34.65
2022-08-26T03:00:52.908Z,25.88
2022-08-26T03:03:22.421Z,33.60
2022-08-26T03:05:50.931Z,60.47
2022-08-26T03:08:18.132Z,33.33
2022-08-26T03:10:48.039Z,34.97
2022-08-26T03:13:16.723Z,47.97
2022-08-26T03:15:44.521Z,20.58
2022-08-26T03:20:42.013Z,28.40
2022-08-26T03:23:11.055Z,29.05
2022-08-26T03:25:38.824Z,34.30
2022-08-26T03:28:06.269Z,44.83
2022-08-26T03:30:44.664Z,59.03
2022-08-26T03:33:13.265Z,41.42
2022-08-26T03:35:43.652Z,34.05
2022-08-26T03:38:11.624Z,26.08
2022-08-26T03:40:39.898Z,22.10
2022-08-26T03:43:09.566Z,27.52
2022-08-26T03:45:38.225Z,33.30
2022-08-26T03:48:06.041Z,26.73
2022-08-26T03:50:34.412Z,32.50
2022-08-26T03:53:03.246Z,29.83
2022-08-26T03:55:33.018Z,41.38
2022-08-26T03:58:01.379Z,25.63
2022-08-26T04:00:30.271Z,26.93
2022-08-26T04:02:57.850Z,30.33
2022-08-26T04:05:25.582Z,30.63
2022-08-26T04:07:52.928Z,45.78
2022-08-26T04:10:28.804Z,47.30
2022-08-26T04:12:59.206Z,52.10
2022-08-26T04:15:27.208Z,40.83
2022-08-26T04:17:55.841Z,23.33
2022-08-26T04:20:24.687Z,32.30
2022-08-26T04:22:52.496Z,34.05
2022-08-26T04:25:20.447Z,25.67
2022-08-26T04:27:48.519Z,21.88
2022-08-26T04:30:16.640Z,32.17
2022-08-26T04:32:44.074Z,25.90
2022-08-26T04:35:11.517Z,33.67
2022-08-26T04:37:39.027Z,27.77
2022-08-26T04:40:10.881Z,24.92
2022-08-26T04:42:38.277Z,28.00
2022-08-26T04:45:10.287Z,39.85
2022-08-26T04:47:38.817Z,33.38
2022-08-26T04:50:07.405Z,43.88
2022-08-26T04:52:36.449Z,36.03
2022-08-26T04:55:06.705Z,31.92
2022-08-26T04:57:36.216Z,28.85
2022-08-26T05:00:10.434Z,36.55
2022-08-26T05:02:38.325Z,26.58
2022-08-26T05:05:07.359Z,29.77
2022-08-26T05:07:38.331Z,32.85
2022-08-26T05:10:08.821Z,27.63
2022-08-26T05:12:36.205Z,30.52
2022-08-26T05:15:05.772Z,30.52
2022-08-26T05:17:33.666Z,28.88
2022-08-26T05:20:00.917Z,27.02
2022-08-26T05:22:28.778Z,31.77
2022-08-26T05:24:55.936Z,33.55
2022-08-26T05:27:23.455Z,28.58
2022-08-26T05:29:54.623Z,33.35
2022-08-26T05:32:22.072Z,28.08
2022-08-26T05:34:53.975Z,29.42
2022-08-26T05:37:22.266Z,33.47
2022-08-26T05:39:51.273Z,26.05
2022-08-26T05:42:20.043Z,26.83
2022-08-26T05:44:53.541Z,25.90
2022-08-26T05:47:21.363Z,27.65
2022-08-26T05:49:51.563Z,31.88
2022-08-26T05:52:20.043Z,30.02
2022-08-26T05:54:47.805Z,27.58
2022-08-26T05:57:15.691Z,30.95
2022-08-26T05:59:43.379Z,27.52
2022-08-26T06:02:10.618Z,26.85
2022-08-26T06:04:39.429Z,29.48
2022-08-26T06:07:06.584Z,27.52
2022-08-26T06:09:37.663Z,23.27
2022-08-26T06:12:06.151Z,22.80
2022-08-26T06:14:33.379Z,23.65
2022-08-26T06:17:01.029Z,24.92
2022-08-26T06:19:32.664Z,24.73
2022-08-26T06:22:23.496Z,22.08
2022-08-26T06:25:09.907Z,25.65
2022-08-26T06:27:37.237Z,21.13
2022-08-26T06:30:04.869Z,22.52
2022-08-26T06:32:31.951Z,22.48
2022-08-26T06:34:59.209Z,21.98
2022-08-26T06:37:26.397Z,21.83
2022-08-26T06:39:53.622Z,23.63
2022-08-26T06:42:20.818Z,22.38
2022-08-26T06:44:48.013Z,21.55
2022-08-26T06:47:15.385Z,23.83
2022-08-26T06:49:42.527Z,24.50
2022-08-26T06:52:11.583Z,18.48
2022-08-26T06:54:41.737Z,22.67
2022-08-26T06:57:11.763Z,24.83
2022-08-26T06:59:39.182Z,24.80
2022-08-26T07:02:06.510Z,19.23
2022-08-26T07:04:35.915Z,24.08
2022-08-26T07:07:03.156Z,29.52
2022-08-26T07:09:33.286Z,22.88
2022-08-26T07:12:02.539Z,27.75
2022-08-26T07:14:31.914Z,20.33
2022-08-26T07:16:59.655Z,20.83
2022-08-26T07:19:30.368Z,20.27
2022-08-26T07:22:03.907Z,19.90
2022-08-26T07:24:36.467Z,21.83
2022-08-26T07:27:07.022Z,18.67
2022-08-26T07:29:38.157Z,17.20
2022-08-26T07:32:06.698Z,17.95
2022-08-26T07:34:33.917Z,19.92
2022-08-26T07:37:01.187Z,14.80
2022-08-26T07:39:31.563Z,17.45
2022-08-26T07:42:07.791Z,12.65
2022-08-26T07:44:37.952Z,12.05
2022-08-26T07:47:10.385Z,13.57
2022-08-26T07:49:54.501Z,18.20
2022-08-26T07:52:26.189Z,14.25
2022-08-26T07:54:55.822Z,11.82
2022-08-26T07:57:24.219Z,13.65
2022-08-26T07:59:52.378Z,13.07
2022-08-26T08:02:23.582Z,16.50
2022-08-26T08:04:51.979Z,10.43
2022-08-26T08:07:19.603Z,13.90
2022-08-26T08:09:49.835Z,16.63
2022-08-26T08:12:18.633Z,9.27
2022-08-26T08:14:47.213Z,13.50
2022-08-26T08:17:15.738Z,13.37
2022-08-26T08:19:43.624Z,13.05
2022-08-26T08:22:17.317Z,13.27
2022-08-26T08:24:45.016Z,15.18
2022-08-26T08:27:12.200Z,12.07
2022-08-26T08:29:41.496Z,15.75
2022-08-26T08:32:11.544Z,11.50
2022-08-26T08:37:14.822Z,13.85
2022-08-26T08:39:42.298Z,13.10
2022-08-26T08:42:44.771Z,14.57
2022-08-26T08:45:33.325Z,12.43
2022-08-26T08:48:20.252Z,11.90
2022-08-26T08:50:52.611Z,14.63
2022-08-26T08:53:23.410Z,17.17
2022-08-26T08:55:59.616Z,14.35
2022-08-26T08:58:43.867Z,15.32
2022-08-26T09:01:22.845Z,21.55
2022-08-26T09:04:22.539Z,9.75
2022-08-26T09:06:54.762Z,12.73
2022-08-26T09:09:30.539Z,11.43
2022-08-26T09:11:59.008Z,12.60
2022-08-26T09:14:28.193Z,15.75
2022-08-26T09:17:20.630Z,14.80
2022-08-26T09:19:55.144Z,16.83
2022-08-26T09:22:34.761Z,15.80
2022-08-26T09:25:02.819Z,14.65
2022-08-26T09:27:38.482Z,12.45
2022-08-26T09:30:06.555Z,8.32
2022-08-26T09:32:35.429Z,12.40
2022-08-26T09:35:06.470Z,14.95
2022-08-26T09:40:28.463Z,10.77
2022-08-26T09:43:16.214Z,13.63
2022-08-26T09:46:09.603Z,13.13
2022-08-26T09:48:41.016Z,9.88
2022-08-26T09:51:31.130Z,8.95
2022-08-26T09:54:02.769Z,12.48
2022-08-26T09:56:33.121Z,12.25
2022-08-26T09:59:01.384Z,8.13
2022-08-26T10:01:36.126Z,7.68
2022-08-26T10:04:20.560Z,9.10
2022-08-26T10:06:58.538Z,11.10
2022-08-26T10:09:26.905Z,13.55
2022-08-26T10:12:00.927Z,9.93
2022-08-26T10:14:40.072Z,6.97
2022-08-26T10:17:25.299Z,8.10
2022-08-26T10:20:09.816Z,8.50
2022-08-26T10:23:06.676Z,6.95
2022-08-26T10:25:55.456Z,10.40
2022-08-26T10:28:55.258Z,9.40
2022-08-26T10:31:47.844Z,10.70
2022-08-26T10:34:21.078Z,12.02
2022-08-26T10:40:02.365Z,7.10
2022-08-26T10:42:37.559Z,11.35
2022-08-26T10:45:14.838Z,5.55
2022-08-26T10:47:54.505Z,8.30
2022-08-26T10:50:31.910Z,9.27
2022-08-26T10:53:01.734Z,10.43
2022-08-26T10:55:40.977Z,7.00
2022-08-26T10:58:35.694Z,7.22
2022-08-26T11:01:32.987Z,8.27
2022-08-26T11:04:14.169Z,9.27
2022-08-26T11:06:41.859Z,9.40
2022-08-26T11:09:09.436Z,7.43
2022-08-26T11:11:42.391Z,9.35
2022-08-26T11:14:10.696Z,9.68
2022-08-26T11:16:43.540Z,9.77
2022-08-26T11:19:50.862Z,6.22
2022-08-26T11:22:45.465Z,8.73
2022-08-26T11:25:18.392Z,10.40
2022-08-26T11:27:48.832Z,9.93
2022-08-26T11:30:18.580Z,6.45
2022-08-26T11:32:53.136Z,5.97
2022-08-26T11:35:20.744Z,10.45
2022-08-26T11:37:48.616Z,8.48
2022-08-26T11:40:20.893Z,7.90
2022-08-26T11:43:00.865Z,7.03
2022-08-26T11:45:39.855Z,10.50
2022-08-26T11:48:22.411Z,6.22
2022-08-26T11:51:18.933Z,8.80
2022-08-26T11:53:47.222Z,11.45
2022-08-26T11:56:31.578Z,9.27
2022-08-26T11:59:02.448Z,9.57
2022-08-26T12:01:32.556Z,8.35
2022-08-26T12:04:01.164Z,6.13
2022-08-26T12:06:30.611Z,9.82
2022-08-26T12:09:00.536Z,8.57
2022-08-26T12:14:02.561Z,8.25
2022-08-26T12:16:38.127Z,5.57
2022-08-26T12:19:28.635Z,10.23
2022-08-26T12:22:20.935Z,8.15
2022-08-26T12:24:59.675Z,7.43
2022-08-26T12:27:30.019Z,5.20
2022-08-26T12:30:18.030Z,7.30
2022-08-26T12:32:58.048Z,8.75
2022-08-26T12:35:29.487Z,9.80
2022-08-26T12:37:57.823Z,5.20
2022-08-26T12:40:30.898Z,7.57
2022-08-26T12:43:00.751Z,10.88
2022-08-26T12:45:31.026Z,6.22
2022-08-26T12:48:02.569Z,8.85
2022-08-26T12:50:51.501Z,7.85
2022-08-26T12:53:25.037Z,7.63
2022-08-26T12:56:03.837Z,7.35
2022-08-26T12:58:38.864Z,7.93
2022-08-26T13:01:09.033Z,8.45
2022-08-26T13:03:40.685Z,7.60
2022-08-26T13:06:18.398Z,5.25
2022-08-26T13:08:53.143Z,7.00
2022-08-26T13:11:34.554Z,6.38
2022-08-26T13:14:09.355Z,12.05
2022-08-26T13:16:38.771Z,7.75
2022-08-26T13:19:10.329Z,6.72
2022-08-26T13:21:48.114Z,6.35
2022-08-26T13:24:20.375Z,8.68
2022-08-26T13:26:51.865Z,13.50
2022-08-26T13:29:19.879Z,7.72
2022-08-26T13:31:48.153Z,7.78
2022-08-26T13:34:19.512Z,7.78
2022-08-26T13:36:48.549Z,12.25
2022-08-26T13:39:16.394Z,5.57
2022-08-26T13:41:44.153Z,6.60
2022-08-26T13:44:12.169Z,10.88
2022-08-26T13:46:39.839Z,5.90
2022-08-26T13:49:07.787Z,6.25
2022-08-26T13:51:35.461Z,5.63
2022-08-26T13:54:02.775Z,7.82
2022-08-26T13:56:30.678Z,7.68
2022-08-26T13:58:59.563Z,7.05
2022-08-26T14:01:28.128Z,8.32
2022-08-26T14:03:55.741Z,6.55
2022-08-26T14:06:23.503Z,9.25
2022-08-26T14:08:51.148Z,7.28
2022-08-26T14:11:20.767Z,8.68
2022-08-26T14:13:48.153Z,9.13
2022-08-26T14:16:33.598Z,6.85
2022-08-26T14:19:02.463Z,9.38
2022-08-26T14:21:35.132Z,10.43
2022-08-26T14:24:02.755Z,8.60
2022-08-26T14:26:30.173Z,9.98
2022-08-26T14:28:59.133Z,14.35
2022-08-26T14:31:29.597Z,12.93
2022-08-26T14:34:05.168Z,5.35
2022-08-26T14:36:33.722Z,10.20
2022-08-26T14:39:12.626Z,7.75
2022-08-26T14:41:53.996Z,7.57
2022-08-26T14:44:26.323Z,6.68
2022-08-26T14:46:55.028Z,9.48
2022-08-26T14:49:23.993Z,7.45
2022-08-26T14:51:51.369Z,7.40
2022-08-26T14:54:19.038Z,11.55
2022-08-26T14:56:59.687Z,9.13
2022-08-26T14:59:29.906Z,5.30
2022-08-26T15:01:57.865Z,7.72
2022-08-26T15:04:25.670Z,7.43
2022-08-26T15:06:55.105Z,9.05
2022-08-26T15:09:24.105Z,9.90
2022-08-26T15:11:51.947Z,8.05
2022-08-26T15:14:20.345Z,10.30
2022-08-26T15:16:49.995Z,6.50
2022-08-26T15:19:18.018Z,11.40
2022-08-26T15:21:47.591Z,8.63
2022-08-26T15:24:17.241Z,7.90
2022-08-26T15:26:46.025Z,10.43
2022-08-26T15:29:13.880Z,9.70
2022-08-26T15:31:41.689Z,11.02
2022-08-26T15:34:16.072Z,11.32
2022-08-26T15:36:46.204Z,8.65
2022-08-26T15:39:14.922Z,13.30
2022-08-26T15:41:42.195Z,14.05
2022-08-26T15:44:10.923Z,8.15
2022-08-26T15:46:39.551Z,11.02
2022-08-26T15:49:07.836Z,9.30
2022-08-26T15:51:45.513Z,10.38
2022-08-26T15:54:14.753Z,9.20
2022-08-26T15:56:43.507Z,8.18
2022-08-26T15:59:12.029Z,12.32
2022-08-26T16:01:39.896Z,7.97
2022-08-26T16:04:07.509Z,9.77
2022-08-26T16:06:37.475Z,8.57
2022-08-26T16:09:06.696Z,9.35
2022-08-26T16:11:36.265Z,7.00
2022-08-26T16:14:04.937Z,9.10
2022-08-26T16:16:32.600Z,7.15
2022-08-26T16:19:04.302Z,8.43
2022-08-26T16:21:34.590Z,6.75
2022-08-26T16:24:01.956Z,10.00
2022-08-26T16:26:33.133Z,8.70
2022-08-26T16:29:09.394Z,8.75
2022-08-26T16:31:38.325Z,6.72
2022-08-26T16:34:07.230Z,8.57
2022-08-26T16:36:36.478Z,8.15
2022-08-26T16:39:05.396Z,9.43
2022-08-26T16:41:33.350Z,8.30
2022-08-26T16:44:01.103Z,10.75
2022-08-26T16:46:29.228Z,5.10
2022-08-26T16:48:58.596Z,8.85
2022-08-26T16:51:27.924Z,13.27
2022-08-26T16:53:56.985Z,5.23
2022-08-26T16:56:33.532Z,6.78
2022-08-26T16:59:04.535Z,11.77
2022-08-26T17:03:59.287Z,8.40
2022-08-26T17:06:26.614Z,7.40
2022-08-26T17:08:53.916Z,10.15
2022-08-26T17:11:21.246Z,12.65
2022-08-26T17:13:48.784Z,8.82
2022-08-26T17:16:16.734Z,8.68
2022-08-26T17:18:44.441Z,8.32
2022-08-26T17:21:13.783Z,7.88
2022-08-26T17:23:42.764Z,7.07
2022-08-26T17:26:12.572Z,8.40
2022-08-26T17:28:40.808Z,8.57
2022-08-26T17:31:10.040Z,10.80
2022-08-26T17:33:38.116Z,13.00
2022-08-26T17:36:07.319Z,11.50
2022-08-26T17:38:35.729Z,9.03
2022-08-26T17:41:03.325Z,10.68
2022-08-26T17:43:30.514Z,15.15
2022-08-26T17:46:07.195Z,10.02
2022-08-26T17:48:36.899Z,8.88
2022-08-26T17:51:12.768Z,9.07
2022-08-26T17:53:41.670Z,15.45
2022-08-26T17:56:11.855Z,16.05
2022-08-26T17:58:40.660Z,20.33
2022-08-26T18:01:15.715Z,12.00
2022-08-26T18:03:43.128Z,10.77
2022-08-26T18:06:12.602Z,10.05
2022-08-26T18:08:41.111Z,12.57
2022-08-26T18:11:10.480Z,11.10
2022-08-26T18:13:38.178Z,9.38
2022-08-26T18:16:14.448Z,10.40
2022-08-26T18:18:42.611Z,9.77
2022-08-26T18:21:16.298Z,9.93
2022-08-26T18:23:44.979Z,13.65
2022-08-26T18:26:40.929Z,12.48
2022-08-26T18:29:08.776Z,15.30
2022-08-26T18:31:36.034Z,18.80
2022-08-26T18:34:05.024Z,17.58
2022-08-26T18:36:37.469Z,8.85
2022-08-26T18:39:06.738Z,11.07
2022-08-26T18:41:39.818Z,16.88
2022-08-26T18:44:08.561Z,12.77
2022-08-26T18:46:39.645Z,14.23
2022-08-26T18:49:08.289Z,11.98
2022-08-26T18:51:37.096Z,12.32
2022-08-26T18:54:07.037Z,19.15
2022-08-26T18:56:36.560Z,11.38
2022-08-26T18:59:05.976Z,16.10
2022-08-26T19:01:35.281Z,10.57
2022-08-26T19:04:05.257Z,18.07
2022-08-26T19:06:35.798Z,19.00
2022-08-26T19:09:05.897Z,23.67
2022-08-26T19:11:37.277Z,20.23
2022-08-26T19:14:11.367Z,31.98
2022-08-26T19:16:39.077Z,28.10
2022-08-26T19:19:06.883Z,30.30
2022-08-26T19:21:35.929Z,19.77
2022-08-26T19:24:06.543Z,25.20
2022-08-26T19:26:34.578Z,29.02
2022-08-26T19:29:02.257Z,18.60
2022-08-26T19:31:29.686Z,26.25
2022-08-26T19:33:58.194Z,23.30
2022-08-26T19:36:27.061Z,15.88
2022-08-26T19:38:56.050Z,23.63
2022-08-26T19:41:37.643Z,16.25
2022-08-26T19:44:13.302Z,14.63
2022-08-26T19:46:41.143Z,20.33
2022-08-26T19:49:08.541Z,16.48
2022-08-26T19:51:39.617Z,15.27
2022-08-26T19:54:06.895Z,14.50
2022-08-26T19:56:35.217Z,20.48
2022-08-26T19:59:03.657Z,17.63
2022-08-26T20:01:31.224Z,12.10
2022-08-26T20:03:58.708Z,16.75
2022-08-26T20:06:26.337Z,14.63
2022-08-26T20:08:53.938Z,17.67
2022-08-26T20:11:24.378Z,15.30
2022-08-26T20:13:51.858Z,11.13
2022-08-26T20:16:19.432Z,19.48
2022-08-26T20:19:05.577Z,12.30
2022-08-26T20:21:38.464Z,19.48
2022-08-26T20:24:14.266Z,16.40
2022-08-26T20:26:44.113Z,14.93
2022-08-26T20:29:14.904Z,15.27
2022-08-26T20:31:44.485Z,13.70
2022-08-26T20:34:13.914Z,15.00
2022-08-26T20:36:43.025Z,14.83
2022-08-26T20:39:11.344Z,15.52
2022-08-26T20:41:39.705Z,19.50
2022-08-26T20:44:07.384Z,13.70
2022-08-26T20:46:35.460Z,14.55
2022-08-26T20:49:04.183Z,15.93
2022-08-26T20:51:34.185Z,12.10
2022-08-26T20:54:01.936Z,16.00
2022-08-26T20:56:29.625Z,13.40
2022-08-26T20:59:00.564Z,14.48
2022-08-26T21:01:34.882Z,14.63
2022-08-26T21:04:06.385Z,18.88
2022-08-26T21:06:34.385Z,13.10
2022-08-26T21:09:03.487Z,12.55
2022-08-26T21:11:31.475Z,14.00
2022-08-26T21:14:06.701Z,16.98
2022-08-26T21:16:37.087Z,13.60
2022-08-26T21:19:06.331Z,11.82
2022-08-26T21:21:34.289Z,12.75
2022-08-26T21:24:01.632Z,16.10
2022-08-26T21:26:29.785Z,11.48
2022-08-26T21:28:57.444Z,11.90
2022-08-26T21:31:25.753Z,13.13
2022-08-26T21:33:53.943Z,16.70
2022-08-26T21:36:21.616Z,12.50
2022-08-26T21:38:49.067Z,11.80
2022-08-26T21:41:20.476Z,21.42
2022-08-26T21:43:49.256Z,14.85
2022-08-26T21:46:20.543Z,14.88
2022-08-26T21:48:55.423Z,12.00
2022-08-26T21:51:25.304Z,14.65
2022-08-26T21:53:53.346Z,16.15
2022-08-26T21:56:22.224Z,13.48
2022-08-26T21:58:50.297Z,12.40
2022-08-26T22:01:22.856Z,10.50
2022-08-26T22:03:52.686Z,13.48
2022-08-26T22:06:23.634Z,14.45
2022-08-26T22:08:51.867Z,20.10
2022-08-26T22:11:20.016Z,13.30
2022-08-26T22:13:48.269Z,12.82
2022-08-26T22:16:15.951Z,9.98
2022-08-26T22:18:45.216Z,14.57
2022-08-26T22:21:19.122Z,13.70
2022-08-26T22:23:47.895Z,16.65
2022-08-26T22:26:25.552Z,18.65
2022-08-26T22:28:58.414Z,12.15
2022-08-26T22:31:37.017Z,13.60
2022-08-26T22:34:11.585Z,16.55
2022-08-26T22:36:44.193Z,11.95
2022-08-26T22:39:17.122Z,13.27
2022-08-26T22:41:45.629Z,19.02
2022-08-26T22:44:13.259Z,13.45
2022-08-26T22:46:42.158Z,13.13
2022-08-26T22:49:12.180Z,11.93
2022-08-26T22:51:39.655Z,11.57
2022-08-26T22:54:07.106Z,14.43
2022-08-26T22:56:35.445Z,11.88
2022-08-26T22:59:04.623Z,15.32
2022-08-26T23:01:33.915Z,13.18
2022-08-26T23:04:01.505Z,12.03
2022-08-26T23:06:29.024Z,14.13
2022-08-26T23:08:56.531Z,21.13
2022-08-26T23:11:24.035Z,20.38
2022-08-26T23:13:51.464Z,18.58
2022-08-26T23:16:18.974Z,16.42
2022-08-26T23:18:46.427Z,17.50
2022-08-26T23:21:14.021Z,12.88
2022-08-26T23:23:41.905Z,12.35
2022-08-26T23:26:09.547Z,10.90
2022-08-26T23:28:38.215Z,12.48
2022-08-26T23:31:06.519Z,21.42
2022-08-26T23:33:52.503Z,16.50
2022-08-26T23:36:22.729Z,14.15
2022-08-26T23:38:52.807Z,13.68
2022-08-26T23:43:50.447Z,19.55
2022-08-26T23:46:18.709Z,19.70
2022-08-26T23:48:46.275Z,15.85
2022-08-26T23:51:32.278Z,16.65
2022-08-26T23:53:59.565Z,12.75
2022-08-26T23:56:26.940Z,15.73
2022-08-26T23:58:55.482Z,19.13
